createdAt,value
2018-02-04T00:00:28.660Z,10.20
2018-02-04T00:02:56.370Z,12.13
2018-02-04T00:05:25.108Z,4.60
2018-02-04T00:07:52.873Z,6.17
2018-02-04T00:10:23.093Z,4.20
2018-02-04T00:12:50.957Z,7.40
2018-02-04T00:15:18.827Z,5.00
2018-02-04T00:17:46.687Z,5.80
2018-02-04T00:20:14.451Z,7.30
2018-02-04T00:22:42.212Z,4.43
2018-02-04T00:25:09.904Z,4.00
2018-02-04T00:27:38.048Z,6.07
2018-02-04T00:30:05.911Z,3.80
2018-02-04T00:32:33.818Z,6.83
2018-02-04T00:35:02.461Z,7.30
2018-02-04T00:37:30.326Z,6.33
2018-02-04T00:39:58.194Z,5.20
2018-02-04T00:42:27.305Z,4.07
2018-02-04T00:44:55.166Z,3.57
2018-02-04T00:47:22.976Z,8.60
2018-02-04T00:49:51.622Z,5.30
2018-02-04T00:52:21.103Z,8.70
2018-02-04T00:54:48.866Z,3.83
2018-02-04T00:57:16.731Z,5.30
2018-02-04T00:59:44.302Z,4.73
2018-02-04T01:02:11.872Z,4.73
2018-02-04T01:04:40.424Z,4.13
2018-02-04T01:07:07.982Z,5.93
2018-02-04T01:09:35.571Z,7.03
2018-02-04T01:12:03.130Z,5.40
2018-02-04T01:14:30.731Z,5.03
2018-02-04T01:16:59.960Z,4.60
2018-02-04T01:19:27.468Z,4.47
2018-02-04T01:21:55.013Z,5.80
2018-02-04T01:24:22.571Z,3.53
2018-02-04T01:26:50.329Z,4.17
2018-02-04T01:29:17.905Z,9.23
2018-02-04T01:31:45.457Z,6.27
2018-02-04T01:34:13.815Z,5.63
2018-02-04T01:36:41.458Z,5.50
2018-02-04T01:39:09.045Z,9.20
2018-02-04T01:41:38.442Z,6.70
2018-02-04T01:44:07.814Z,5.17
2018-02-04T01:46:35.514Z,6.10
2018-02-04T01:49:03.882Z,6.77
2018-02-04T01:51:33.905Z,8.23
2018-02-04T01:54:01.506Z,7.47
2018-02-04T01:56:29.085Z,8.73
2018-02-04T01:58:56.643Z,11.73
2018-02-04T02:01:24.201Z,11.07
2018-02-04T02:03:51.786Z,12.07
2018-02-04T02:06:19.345Z,15.57
2018-02-04T02:08:46.937Z,14.77
2018-02-04T02:11:15.287Z,10.40
2018-02-04T02:13:42.816Z,20.87
2018-02-04T02:16:10.324Z,16.90
2018-02-04T02:18:37.836Z,19.23
2018-02-04T02:21:05.352Z,18.23
2018-02-04T02:23:33.612Z,18.57
2018-02-04T02:26:02.638Z,27.63
2018-02-04T02:28:32.099Z,30.20
2018-02-04T02:30:59.596Z,43.33
2018-02-04T02:33:27.120Z,39.73
2018-02-04T02:35:54.636Z,40.67
2018-02-04T02:38:22.147Z,51.07
2018-02-04T02:40:50.436Z,47.07
2018-02-04T02:43:17.956Z,49.00
2018-02-04T02:45:45.454Z,63.90
2018-02-04T02:48:13.005Z,44.47
2018-02-04T02:50:41.264Z,69.97
2018-02-04T02:53:09.605Z,59.90
2018-02-04T02:55:37.115Z,58.50
2018-02-04T02:58:05.557Z,67.03
2018-02-04T03:00:33.057Z,84.97
2018-02-04T03:03:00.561Z,52.80
2018-02-04T03:05:28.082Z,87.47
2018-02-04T03:07:55.576Z,92.50
2018-02-04T03:10:23.104Z,74.70
2018-02-04T03:12:50.606Z,97.97
2018-02-04T03:15:18.124Z,92.77
2018-02-04T03:17:45.624Z,97.87
2018-02-04T03:20:13.148Z,128.87
2018-02-04T03:22:40.678Z,108.97
2018-02-04T03:25:08.204Z,102.63
2018-02-04T03:27:36.473Z,125.60
2018-02-04T03:30:04.749Z,122.33
2018-02-04T03:32:33.040Z,98.03
2018-02-04T03:35:01.308Z,143.07
2018-02-04T03:37:29.600Z,111.00
2018-02-04T03:39:57.124Z,106.83
2018-02-04T03:42:25.404Z,123.13
2018-02-04T03:44:52.905Z,132.57
2018-02-04T03:47:20.432Z,137.57
2018-02-04T03:49:48.705Z,131.70
2018-02-04T03:52:18.954Z,127.17
2018-02-04T03:54:46.456Z,147.13
2018-02-04T03:57:14.033Z,157.07
2018-02-04T03:59:42.320Z,169.10
2018-02-04T04:02:11.484Z,162.63
2018-02-04T04:04:39.006Z,153.40
2018-02-04T04:07:06.503Z,187.80
2018-02-04T04:09:34.001Z,132.00
2018-02-04T04:12:01.520Z,185.23
2018-02-04T04:14:29.016Z,150.73
2018-02-04T04:16:56.536Z,177.43
2018-02-04T04:19:24.033Z,194.63
2018-02-04T04:21:51.564Z,190.63
2018-02-04T04:24:19.832Z,165.50
2018-02-04T04:26:47.332Z,205.67
2018-02-04T04:29:14.856Z,169.57
2018-02-04T04:31:43.128Z,191.20
2018-02-04T04:34:11.424Z,181.20
2018-02-04T04:36:38.921Z,169.63
2018-02-04T04:39:06.444Z,202.43
2018-02-04T04:41:33.940Z,206.17
2018-02-04T04:44:01.440Z,181.27
2018-02-04T04:46:29.732Z,197.40
2018-02-04T04:48:57.238Z,198.60
2018-02-04T04:51:25.749Z,196.80
2018-02-04T04:53:54.012Z,179.33
2018-02-04T04:56:21.539Z,195.50
2018-02-04T04:58:49.037Z,182.80
2018-02-04T05:01:17.309Z,189.27
2018-02-04T05:03:45.598Z,201.27
2018-02-04T05:06:13.860Z,193.10
2018-02-04T05:08:42.143Z,198.60
2018-02-04T05:11:10.409Z,191.20
2018-02-04T05:13:38.705Z,196.03
2018-02-04T05:16:06.224Z,175.30
2018-02-04T05:18:33.745Z,179.83
2018-02-04T05:21:01.249Z,177.47
2018-02-04T05:23:28.748Z,174.57
2018-02-04T05:25:56.267Z,185.50
2018-02-04T05:28:24.536Z,180.83
2018-02-04T05:30:52.057Z,168.53
2018-02-04T05:33:19.577Z,179.60
2018-02-04T05:35:47.116Z,173.67
2018-02-04T05:38:15.382Z,167.23
2018-02-04T05:40:42.909Z,152.70
2018-02-04T05:43:10.412Z,174.43
2018-02-04T05:45:38.673Z,160.43
2018-02-04T05:48:06.199Z,176.50
2018-02-04T05:50:34.676Z,168.43
2018-02-04T05:53:02.206Z,152.83
2018-02-04T05:55:29.710Z,153.90
2018-02-04T05:57:58.740Z,166.87
2018-02-04T06:00:27.004Z,173.93
2018-02-04T06:02:55.292Z,147.63
2018-02-04T06:05:22.792Z,140.63
2018-02-04T06:07:50.301Z,156.27
2018-02-04T06:10:18.584Z,140.27
2018-02-04T06:12:46.104Z,128.23
2018-02-04T06:15:13.629Z,155.70
2018-02-04T06:17:41.143Z,155.63
2018-02-04T06:20:09.464Z,136.53
2018-02-04T06:22:37.017Z,131.60
2018-02-04T06:25:04.544Z,128.57
2018-02-04T06:27:32.816Z,123.63
2018-02-04T06:30:01.112Z,128.93
2018-02-04T06:32:28.631Z,117.37
2018-02-04T06:34:57.164Z,128.07
2018-02-04T06:37:24.692Z,118.70
2018-02-04T06:39:52.213Z,115.13
2018-02-04T06:42:20.641Z,113.30
2018-02-04T06:44:48.140Z,118.63
2018-02-04T06:47:16.413Z,112.67
2018-02-04T06:49:43.937Z,113.43
2018-02-04T06:52:11.472Z,114.67
2018-02-04T06:54:38.989Z,118.47
2018-02-04T06:57:09.028Z,110.00
2018-02-04T06:59:37.321Z,104.10
2018-02-04T07:02:04.821Z,96.43
2018-02-04T07:04:33.300Z,114.10
2018-02-04T07:07:00.800Z,93.00
2018-02-04T07:09:31.076Z,99.13
2018-02-04T07:11:58.600Z,95.53
2018-02-04T07:14:26.108Z,73.13
2018-02-04T07:16:54.635Z,98.90
2018-02-04T07:19:22.144Z,91.50
2018-02-04T07:21:49.681Z,93.63
2018-02-04T07:24:17.192Z,88.80
2018-02-04T07:26:45.476Z,87.50
2018-02-04T07:29:13.741Z,95.97
2018-02-04T07:31:42.008Z,76.33
2018-02-04T07:34:10.292Z,83.47
2018-02-04T07:36:38.573Z,81.40
2018-02-04T07:39:06.853Z,90.23
2018-02-04T07:41:34.348Z,67.97
2018-02-04T07:44:01.864Z,66.10
2018-02-04T07:46:30.141Z,69.30
2018-02-04T07:48:57.664Z,68.53
2018-02-04T07:51:25.197Z,68.33
2018-02-04T07:53:52.717Z,65.50
2018-02-04T07:56:20.213Z,71.37
2018-02-04T07:58:47.708Z,68.60
2018-02-04T08:01:16.001Z,61.73
2018-02-04T08:03:43.554Z,59.43
2018-02-04T08:06:11.044Z,62.13
2018-02-04T08:08:38.555Z,66.77
2018-02-04T08:11:06.820Z,52.70
2018-02-04T08:13:34.325Z,61.77
2018-02-04T08:16:01.849Z,51.80
2018-02-04T08:18:30.130Z,57.33
2018-02-04T08:20:58.433Z,50.57
2018-02-04T08:23:25.923Z,60.47
2018-02-04T08:25:53.436Z,55.60
2018-02-04T08:28:20.964Z,46.30
2018-02-04T08:30:49.237Z,48.23
2018-02-04T08:33:16.757Z,44.93
2018-02-04T08:35:44.257Z,51.90
2018-02-04T08:38:12.524Z,48.20
2018-02-04T08:40:40.040Z,42.33
2018-02-04T08:43:08.468Z,47.67
2018-02-04T08:45:38.704Z,44.53
2018-02-04T08:48:06.216Z,40.00
2018-02-04T08:50:33.737Z,42.60
2018-02-04T08:53:01.241Z,40.30
2018-02-04T08:55:28.736Z,41.30
2018-02-04T08:57:56.315Z,30.50
2018-02-04T09:00:23.817Z,32.50
2018-02-04T09:02:51.337Z,37.77
2018-02-04T09:05:18.828Z,36.77
2018-02-04T09:07:46.350Z,33.70
2018-02-04T09:10:13.857Z,28.70
2018-02-04T09:12:42.129Z,30.07
2018-02-04T09:15:09.645Z,30.17
2018-02-04T09:17:37.164Z,40.13
2018-02-04T09:20:05.428Z,34.20
2018-02-04T09:22:33.717Z,30.50
2018-02-04T09:25:01.236Z,33.87
2018-02-04T09:27:32.223Z,31.57
2018-02-04T09:29:59.720Z,28.60
2018-02-04T09:32:27.216Z,26.03
2018-02-04T09:34:55.501Z,31.03
2018-02-04T09:37:22.996Z,27.37
2018-02-04T09:39:50.516Z,21.40
2018-02-04T09:42:18.013Z,24.23
2018-02-04T09:44:45.532Z,28.40
2018-02-04T09:47:13.048Z,28.63
2018-02-04T09:49:40.593Z,29.47
2018-02-04T09:52:08.104Z,20.40
2018-02-04T09:54:35.604Z,19.90
2018-02-04T09:57:03.120Z,20.87
2018-02-04T09:59:30.620Z,24.97
2018-02-04T10:01:58.148Z,24.50
2018-02-04T10:04:25.644Z,22.57
2018-02-04T10:06:54.670Z,20.83
2018-02-04T10:09:22.933Z,21.47
2018-02-04T10:11:51.251Z,18.00
2018-02-04T10:14:21.456Z,18.03
2018-02-04T10:16:48.960Z,11.80
2018-02-04T10:19:16.476Z,14.60
2018-02-04T10:21:43.968Z,12.60
2018-02-04T10:24:11.460Z,12.43
2018-02-04T10:26:39.748Z,11.57
2018-02-04T10:29:07.268Z,11.50
2018-02-04T10:31:35.533Z,11.73
2018-02-04T10:34:03.024Z,11.80
2018-02-04T10:36:31.308Z,10.53
2018-02-04T10:38:59.568Z,12.47
2018-02-04T10:41:27.849Z,10.37
2018-02-04T10:43:58.106Z,10.10
2018-02-04T10:46:25.600Z,10.20
2018-02-04T10:48:56.632Z,9.93
2018-02-04T10:51:29.808Z,10.63
2018-02-04T10:53:57.304Z,8.93
2018-02-04T10:56:24.816Z,8.23
2018-02-04T10:58:52.304Z,9.37
2018-02-04T11:01:21.528Z,8.13
2018-02-04T11:03:49.809Z,8.37
2018-02-04T11:06:18.084Z,7.80
2018-02-04T11:08:46.342Z,8.47
2018-02-04T11:11:13.836Z,7.93
2018-02-04T11:13:41.366Z,8.27
2018-02-04T11:16:09.628Z,6.00
2018-02-04T11:18:37.142Z,6.33
2018-02-04T11:21:04.664Z,5.60
2018-02-04T11:23:32.180Z,5.13
2018-02-04T11:25:59.752Z,5.77
2018-02-04T11:28:28.151Z,4.90
2018-02-04T11:30:56.438Z,5.60
2018-02-04T11:33:23.933Z,5.20
2018-02-04T11:35:51.449Z,4.10
2018-02-04T11:38:18.951Z,4.33
2018-02-04T11:40:46.474Z,4.87
2018-02-04T11:43:14.000Z,4.63
2018-02-04T11:45:43.216Z,5.30
2018-02-04T11:48:10.735Z,4.50
2018-02-04T11:50:39.756Z,4.30
2018-02-04T11:53:08.033Z,4.80
2018-02-04T11:55:36.301Z,10.17
2018-02-04T11:58:04.917Z,4.80
2018-02-04T12:00:32.460Z,4.60
2018-02-04T12:02:59.965Z,4.07
2018-02-04T12:05:27.475Z,4.50
2018-02-04T12:07:54.963Z,5.23
2018-02-04T12:10:22.476Z,6.87
2018-02-04T12:12:50.742Z,3.40
2018-02-04T12:15:19.028Z,6.33
2018-02-04T12:17:47.309Z,3.80
2018-02-04T12:20:14.821Z,3.60
2018-02-04T12:22:42.328Z,4.13
2018-02-04T12:25:09.886Z,3.57
2018-02-04T12:27:39.208Z,4.77
2018-02-04T12:30:06.728Z,3.30
2018-02-04T12:32:35.235Z,3.93
2018-02-04T12:35:02.734Z,3.90
2018-02-04T12:37:30.250Z,3.70
2018-02-04T12:39:57.823Z,3.90
2018-02-04T12:42:27.083Z,3.50
2018-02-04T12:44:55.344Z,3.83
2018-02-04T12:47:23.624Z,4.70
2018-02-04T12:49:51.880Z,3.73
2018-02-04T12:52:19.491Z,4.80
2018-02-04T12:54:47.308Z,3.20
2018-02-04T12:57:15.607Z,3.67
2018-02-04T12:59:43.894Z,3.53
2018-02-04T13:02:11.376Z,3.17
2018-02-04T13:04:38.885Z,4.30
2018-02-04T13:07:07.165Z,3.27
2018-02-04T13:09:35.443Z,2.80
2018-02-04T13:12:03.730Z,3.47
2018-02-04T13:14:31.229Z,4.00
2018-02-04T13:16:58.758Z,3.73
2018-02-04T13:19:26.448Z,3.70
2018-02-04T13:21:54.156Z,4.63
2018-02-04T13:24:21.709Z,3.40
2018-02-04T13:26:50.014Z,3.07
2018-02-04T13:29:17.517Z,3.57
2018-02-04T13:31:46.529Z,3.23
2018-02-04T13:34:14.846Z,3.23
2018-02-04T13:36:42.396Z,4.23
2018-02-04T13:39:09.955Z,3.37
2018-02-04T13:41:37.460Z,3.87
2018-02-04T13:44:06.513Z,3.33
2018-02-04T13:46:34.009Z,3.43
2018-02-04T13:49:01.500Z,3.57
2018-02-04T13:51:29.025Z,2.97
2018-02-04T13:53:56.516Z,2.70
2018-02-04T13:56:24.036Z,3.43
2018-02-04T13:58:53.270Z,3.97
2018-02-04T14:01:21.525Z,4.77
2018-02-04T14:03:49.805Z,2.97
2018-02-04T14:06:18.073Z,3.23
2018-02-04T14:08:45.626Z,3.00
2018-02-04T14:11:13.114Z,5.63
2018-02-04T14:13:40.625Z,2.87
2018-02-04T14:16:08.133Z,101.87
2018-02-04T14:18:35.655Z,61.97
2018-02-04T14:21:03.229Z,176.80
2018-02-04T14:23:31.533Z,118.87
2018-02-04T14:25:59.073Z,188.47
2018-02-04T14:28:26.572Z,130.70
2018-02-04T14:30:54.092Z,129.27
2018-02-04T14:33:21.617Z,97.03
2018-02-04T14:35:49.127Z,97.43
2018-02-04T14:38:16.653Z,86.63
2018-02-04T14:40:44.921Z,99.87
2018-02-04T14:43:13.216Z,94.73
2018-02-04T14:45:40.725Z,86.80
2018-02-04T14:48:10.680Z,81.53
2018-02-04T14:50:38.201Z,111.10
2018-02-04T14:53:06.468Z,76.00
2018-02-04T14:55:34.075Z,88.30
2018-02-04T14:58:01.592Z,78.53
2018-02-04T15:00:29.117Z,73.60
2018-02-04T15:02:56.650Z,71.63
2018-02-04T15:05:24.157Z,67.83
2018-02-04T15:07:51.705Z,62.83
2018-02-04T15:10:19.236Z,57.70
2018-02-04T15:12:46.745Z,58.30
2018-02-04T15:15:14.242Z,62.33
2018-02-04T15:17:41.769Z,47.73
2018-02-04T15:20:10.037Z,46.67
2018-02-04T15:22:37.551Z,58.13
2018-02-04T15:25:05.069Z,58.13
2018-02-04T15:27:33.557Z,39.87
2018-02-04T15:30:01.133Z,52.60
2018-02-04T15:32:28.657Z,51.80
2018-02-04T15:34:56.929Z,42.47
2018-02-04T15:37:25.204Z,42.00
2018-02-04T15:39:53.521Z,53.50
2018-02-04T15:42:21.023Z,30.97
2018-02-04T15:44:49.328Z,41.97
2018-02-04T15:47:17.593Z,31.27
2018-02-04T15:49:46.002Z,34.43
2018-02-04T15:52:13.500Z,35.20
2018-02-04T15:54:41.780Z,27.00
2018-02-04T15:57:09.395Z,35.43
2018-02-04T15:59:36.888Z,36.53
2018-02-04T16:02:04.404Z,27.60
2018-02-04T16:04:31.909Z,51.40
2018-02-04T16:07:02.173Z,31.60
2018-02-04T16:09:29.671Z,30.90
2018-02-04T16:11:57.163Z,31.73
2018-02-04T16:14:25.451Z,29.83
2018-02-04T16:16:54.705Z,20.13
2018-02-04T16:19:22.208Z,19.37
2018-02-04T16:21:50.469Z,23.40
2018-02-04T16:24:18.753Z,23.87
2018-02-04T16:26:47.017Z,19.53
2018-02-04T16:29:15.304Z,16.83
2018-02-04T16:31:43.588Z,14.83
2018-02-04T16:34:11.097Z,22.47
2018-02-04T16:36:38.611Z,25.57
2018-02-04T16:39:06.136Z,16.33
2018-02-04T16:41:35.345Z,16.20
2018-02-04T16:44:03.628Z,15.30
2018-02-04T16:46:31.888Z,14.40
2018-02-04T16:49:00.176Z,14.53
2018-02-04T16:51:29.703Z,18.23
2018-02-04T16:53:57.192Z,11.20
2018-02-04T16:56:24.716Z,8.07
2018-02-04T16:58:52.209Z,19.00
2018-02-04T17:01:19.729Z,10.77
2018-02-04T17:03:47.229Z,12.93
2018-02-04T17:06:15.508Z,14.10
2018-02-04T17:08:44.535Z,12.07
2018-02-04T17:11:12.043Z,12.57
2018-02-04T17:13:39.555Z,12.77
2018-02-04T17:16:07.053Z,10.37
2018-02-04T17:18:34.561Z,14.20
2018-02-04T17:21:02.875Z,9.70
2018-02-04T17:23:32.342Z,9.20
2018-02-04T17:25:59.849Z,12.70
2018-02-04T17:28:27.344Z,8.53
2018-02-04T17:30:55.634Z,8.67
2018-02-04T17:33:23.130Z,15.20
2018-02-04T17:35:50.665Z,12.27
2018-02-04T17:38:20.153Z,8.80
2018-02-04T17:40:47.641Z,8.60
2018-02-04T17:43:15.157Z,7.93
2018-02-04T17:45:43.441Z,11.63
2018-02-04T17:48:10.948Z,7.37
2018-02-04T17:50:38.462Z,7.20
2018-02-04T17:53:05.973Z,8.70
2018-02-04T17:55:35.956Z,10.60
2018-02-04T17:58:03.469Z,8.37
2018-02-04T18:00:31.861Z,6.60
2018-02-04T18:02:59.380Z,6.17
2018-02-04T18:05:27.640Z,7.57
2018-02-04T18:07:55.164Z,5.53
2018-02-04T18:10:22.652Z,6.30
2018-02-04T18:12:50.144Z,14.30
2018-02-04T18:15:18.440Z,8.50
2018-02-04T18:17:45.929Z,6.83
2018-02-04T18:20:13.542Z,5.33
2018-02-04T18:22:41.804Z,11.30
2018-02-04T18:25:10.100Z,5.37
2018-02-04T18:27:37.600Z,6.70
2018-02-04T18:30:05.110Z,6.20
2018-02-04T18:32:33.403Z,4.07
2018-02-04T18:35:00.919Z,5.70
2018-02-04T18:37:28.445Z,5.90
2018-02-04T18:39:56.895Z,7.00
2018-02-04T18:42:24.433Z,6.07
2018-02-04T18:44:52.700Z,7.07
2018-02-04T18:47:20.209Z,5.73
2018-02-04T18:49:49.678Z,5.07
2018-02-04T18:52:17.181Z,3.93
2018-02-04T18:54:44.697Z,6.57
2018-02-04T18:57:12.193Z,4.20
2018-02-04T18:59:39.708Z,3.97
2018-02-04T19:02:07.191Z,4.57
2018-02-04T19:04:34.685Z,4.90
2018-02-04T19:07:02.209Z,5.90
2018-02-04T19:09:29.703Z,4.97
2018-02-04T19:11:57.220Z,5.50
2018-02-04T19:14:24.712Z,7.10
2018-02-04T19:16:52.228Z,5.37
2018-02-04T19:19:19.737Z,6.57
2018-02-04T19:21:48.000Z,7.27
2018-02-04T19:24:16.285Z,3.50
2018-02-04T19:26:43.800Z,4.80
2018-02-04T19:29:11.293Z,2.83
2018-02-04T19:31:38.820Z,5.00
2018-02-04T19:34:06.351Z,3.27
2018-02-04T19:36:33.843Z,3.77
2018-02-04T19:39:01.340Z,3.97
2018-02-04T19:41:28.885Z,3.90
2018-02-04T19:43:56.408Z,3.60
2018-02-04T19:46:23.925Z,3.90
2018-02-04T19:48:52.405Z,6.20
2018-02-04T19:51:19.916Z,3.40
2018-02-04T19:53:47.412Z,3.57
2018-02-04T19:56:16.016Z,4.30
2018-02-04T19:58:43.536Z,3.50
2018-02-04T20:01:11.021Z,3.27
2018-02-04T20:03:38.533Z,5.43
2018-02-04T20:06:07.532Z,3.00
2018-02-04T20:08:35.058Z,5.83
2018-02-04T20:11:02.600Z,3.50
2018-02-04T20:13:30.140Z,3.37
2018-02-04T20:15:57.661Z,5.20
2018-02-04T20:18:25.932Z,2.63
2018-02-04T20:20:54.238Z,5.67
2018-02-04T20:23:22.526Z,3.37
2018-02-04T20:25:50.012Z,4.03
2018-02-04T20:28:17.546Z,3.33
2018-02-04T20:30:45.045Z,2.60
2018-02-04T20:33:23.469Z,5.23
2018-02-04T20:35:50.997Z,4.67
2018-02-04T20:38:19.296Z,4.17
2018-02-04T20:40:46.788Z,3.40
2018-02-04T20:43:15.985Z,2.97
2018-02-04T20:45:44.260Z,3.10
2018-02-04T20:48:12.516Z,3.37
2018-02-04T20:50:40.020Z,2.90
2018-02-04T20:53:07.520Z,3.23
2018-02-04T20:55:35.038Z,3.13
2018-02-04T20:58:02.549Z,3.67
2018-02-04T21:00:30.804Z,3.90
2018-02-04T21:02:58.320Z,2.73
2018-02-04T21:05:25.825Z,3.13
2018-02-04T21:07:53.345Z,3.30
2018-02-04T21:10:20.866Z,3.60
2018-02-04T21:12:49.117Z,2.70
2018-02-04T21:15:16.642Z,2.87
2018-02-04T21:17:45.109Z,3.97
2018-02-04T21:20:12.601Z,3.73
2018-02-04T21:22:41.624Z,2.60
2018-02-04T21:25:09.141Z,2.60
2018-02-04T21:27:36.628Z,2.50
2018-02-04T21:30:04.910Z,6.70
2018-02-04T21:32:33.173Z,3.50
2018-02-04T21:35:01.480Z,5.53
2018-02-04T21:37:28.976Z,4.00
2018-02-04T21:39:56.490Z,4.87
2018-02-04T21:42:23.993Z,4.93
2018-02-04T21:44:51.510Z,3.70
2018-02-04T21:47:19.067Z,5.70
2018-02-04T21:49:46.561Z,4.00
2018-02-04T21:52:14.083Z,3.80
2018-02-04T21:54:41.572Z,2.70
2018-02-04T21:57:09.089Z,6.03
2018-02-04T21:59:36.592Z,4.13
2018-02-04T22:02:04.081Z,3.60
2018-02-04T22:04:32.365Z,4.50
2018-02-04T22:07:00.630Z,5.40
2018-02-04T22:09:28.916Z,4.20
2018-02-04T22:11:57.185Z,2.67
2018-02-04T22:14:25.469Z,3.47
2018-02-04T22:16:52.992Z,3.30
2018-02-04T22:19:20.484Z,5.43
2018-02-04T22:21:48.003Z,2.93
2018-02-04T22:24:16.260Z,2.60
2018-02-04T22:26:43.764Z,3.90
2018-02-04T22:29:12.049Z,5.90
2018-02-04T22:31:39.560Z,3.10
2018-02-04T22:34:08.564Z,2.83
2018-02-04T22:36:36.078Z,4.87
2018-02-04T22:39:03.603Z,4.00
2018-02-04T22:41:31.861Z,7.07
2018-02-04T22:44:01.329Z,3.20
2018-02-04T22:46:28.862Z,2.73
2018-02-04T22:48:56.421Z,3.23
2018-02-04T22:51:23.917Z,2.50
2018-02-04T22:53:52.205Z,9.10
2018-02-04T22:56:19.718Z,3.40
2018-02-04T22:58:47.247Z,3.70
2018-02-04T23:01:15.561Z,3.50
2018-02-04T23:03:44.124Z,2.43
2018-02-04T23:06:12.912Z,4.10
2018-02-04T23:08:40.574Z,3.57
2018-02-04T23:11:09.464Z,4.47
2018-02-04T23:13:36.973Z,2.50
2018-02-04T23:16:05.363Z,2.87
2018-02-04T23:18:33.828Z,2.83
2018-02-04T23:21:01.330Z,3.90
2018-02-04T23:23:28.841Z,5.03
2018-02-04T23:25:57.293Z,4.23
2018-02-04T23:28:24.858Z,2.63
2018-02-04T23:30:52.361Z,2.13
2018-02-04T23:33:21.991Z,2.20
2018-02-04T23:35:49.508Z,4.67
2018-02-04T23:38:16.993Z,3.50
2018-02-04T23:40:46.505Z,2.37
2018-02-04T23:43:15.195Z,2.63
2018-02-04T23:45:42.731Z,2.07
2018-02-04T23:48:10.985Z,2.37
2018-02-04T23:50:39.268Z,2.87
2018-02-04T23:53:07.530Z,2.23
2018-02-04T23:55:35.256Z,2.23
2018-02-04T23:58:02.789Z,2.80
